createdAt,value
2019-04-25T00:02:01.836Z,97980.19
2019-04-25T00:04:31.514Z,97984.98
2019-04-25T00:07:00.010Z,97979.48
2019-04-25T00:09:31.713Z,97971.23
2019-04-25T00:12:00.234Z,97971.77
2019-04-25T00:14:31.456Z,97972.81
2019-04-25T00:17:01.747Z,97972.22
2019-04-25T00:19:31.706Z,97965.81
2019-04-25T00:22:02.073Z,97976.08
2019-04-25T00:24:39.624Z,97986.45
2019-04-25T00:27:08.238Z,97980.84
2019-04-25T00:29:36.677Z,97970.62
2019-04-25T00:32:05.177Z,97967.38
2019-04-25T00:34:33.761Z,97969.31
2019-04-25T00:37:02.598Z,97954.98
2019-04-25T00:39:31.989Z,97948.63
2019-04-25T00:42:02.173Z,97953.00
2019-04-25T00:44:31.975Z,97946.27
2019-04-25T00:47:02.282Z,97949.72
2019-04-25T00:49:32.084Z,97953.24
2019-04-25T00:52:01.952Z,97970.12
2019-04-25T00:54:31.359Z,97959.20
2019-04-25T00:56:59.925Z,97960.70
2019-04-25T00:59:31.947Z,97973.25
2019-04-25T01:02:13.769Z,97978.01
2019-04-25T01:04:43.719Z,97978.50
2019-04-25T01:07:12.721Z,97984.59
2019-04-25T01:09:42.313Z,97994.00
2019-04-25T01:12:11.594Z,98000.97
2019-04-25T01:14:41.876Z,98015.75
2019-04-25T01:17:11.633Z,98020.40
2019-04-25T01:19:40.103Z,98021.69
2019-04-25T01:22:08.806Z,98032.31
2019-04-25T01:24:37.218Z,98037.52
2019-04-25T01:27:05.711Z,98042.95
2019-04-25T01:29:34.299Z,98046.58
2019-04-25T01:32:04.738Z,98045.92
2019-04-25T01:34:40.804Z,98047.09
2019-04-25T01:37:11.056Z,98040.44
2019-04-25T01:39:44.268Z,98043.36
2019-04-25T01:42:29.662Z,98038.62
2019-04-25T01:44:58.946Z,98045.90
2019-04-25T01:47:28.477Z,98040.75
2019-04-25T01:49:56.927Z,98048.56
2019-04-25T01:52:25.417Z,98049.59
2019-04-25T01:54:55.082Z,98059.58
2019-04-25T01:57:24.078Z,98048.52
2019-04-25T01:59:54.076Z,98049.12
2019-04-25T02:02:24.351Z,98043.14
2019-04-25T02:04:54.780Z,98041.63
2019-04-25T02:07:23.359Z,98047.13
2019-04-25T02:09:53.966Z,98045.23
2019-04-25T02:12:23.739Z,98042.16
2019-04-25T02:14:54.633Z,98038.31
2019-04-25T02:17:24.106Z,98029.29
2019-04-25T02:19:54.549Z,98032.56
2019-04-25T02:22:24.277Z,98032.58
2019-04-25T02:24:54.956Z,98034.87
2019-04-25T02:27:24.239Z,98042.64
2019-04-25T02:29:54.567Z,98031.22
2019-04-25T02:32:24.725Z,98037.36
2019-04-25T02:34:55.306Z,98034.41
2019-04-25T02:37:25.724Z,98040.25
2019-04-25T02:39:56.669Z,98050.55
2019-04-25T02:42:24.610Z,98048.37
2019-04-25T02:44:57.882Z,98062.66
2019-04-25T02:47:26.691Z,98069.28
2019-04-25T02:50:08.597Z,98069.89
2019-04-25T02:52:39.695Z,98073.24
2019-04-25T02:55:10.659Z,98071.58
2019-04-25T02:57:38.441Z,98067.02
2019-04-25T03:00:14.944Z,98065.86
2019-04-25T03:02:44.500Z,98068.89
2019-04-25T03:05:14.266Z,98057.84
2019-04-25T03:07:44.626Z,98062.50
2019-04-25T03:10:14.864Z,98057.30
2019-04-25T03:12:44.660Z,98056.39
2019-04-25T03:15:14.492Z,98056.80
2019-04-25T03:17:44.406Z,98059.99
2019-04-25T03:20:29.703Z,98055.78
2019-04-25T03:23:01.226Z,98065.50
2019-04-25T03:25:29.647Z,98056.69
2019-04-25T03:27:59.620Z,98055.55
2019-04-25T03:30:28.950Z,98060.77
2019-04-25T03:32:57.423Z,98060.77
2019-04-25T03:35:25.799Z,98059.99
2019-04-25T03:37:54.533Z,98055.12
2019-04-25T03:40:23.548Z,98054.80
2019-04-25T03:42:51.943Z,98061.09
2019-04-25T03:45:20.371Z,98066.00
2019-04-25T03:47:48.838Z,98073.08
2019-04-25T03:50:17.260Z,98069.69
2019-04-25T03:52:45.670Z,98074.42
2019-04-25T03:55:14.477Z,98071.88
2019-04-25T03:57:44.304Z,98080.59
2019-04-25T04:00:14.569Z,98084.70
2019-04-25T04:02:44.245Z,98085.84
2019-04-25T04:05:13.941Z,98080.77
2019-04-25T04:07:43.529Z,98078.19
2019-04-25T04:10:14.201Z,98076.45
2019-04-25T04:12:44.207Z,98080.62
2019-04-25T04:15:14.514Z,98086.84
2019-04-25T04:18:00.924Z,98088.97
2019-04-25T04:20:36.490Z,98088.69
2019-04-25T04:23:09.251Z,98079.45
2019-04-25T04:25:37.711Z,98071.88
2019-04-25T04:28:06.258Z,98074.09
2019-04-25T04:30:34.695Z,98091.32
2019-04-25T04:33:03.603Z,98095.18
2019-04-25T04:35:33.541Z,98088.72
2019-04-25T04:38:02.097Z,98076.84
2019-04-25T04:40:30.526Z,98093.21
2019-04-25T04:42:59.576Z,98085.69
2019-04-25T04:45:27.941Z,98088.59
2019-04-25T04:47:56.410Z,98085.55
2019-04-25T04:50:25.326Z,98093.56
2019-04-25T04:52:54.078Z,98095.25
2019-04-25T04:55:23.215Z,98111.80
2019-04-25T04:57:51.806Z,98099.70
2019-04-25T05:00:20.630Z,98108.95
2019-04-25T05:02:50.717Z,98114.80
2019-04-25T05:05:20.745Z,98113.23
2019-04-25T05:07:53.948Z,98115.31
2019-04-25T05:10:23.630Z,98115.26
2019-04-25T05:12:53.281Z,98117.45
2019-04-25T05:15:23.029Z,98104.81
2019-04-25T05:17:51.942Z,98110.20
2019-04-25T05:20:20.360Z,98113.74
2019-04-25T05:22:48.802Z,98101.41
2019-04-25T05:25:17.821Z,98092.58
2019-04-25T05:28:00.175Z,98094.63
2019-04-25T05:30:19.581Z,98093.09
2019-04-25T05:32:48.186Z,98102.61
2019-04-25T05:35:16.605Z,98094.88
2019-04-25T05:37:45.050Z,98095.50
2019-04-25T05:40:15.774Z,98101.61
2019-04-25T05:42:48.640Z,98099.39
2019-04-25T05:45:19.924Z,98101.11
2019-04-25T05:47:48.424Z,98106.38
2019-04-25T05:50:17.805Z,98106.62
2019-04-25T05:52:46.440Z,98105.75
2019-04-25T05:55:17.540Z,98102.59
2019-04-25T05:57:49.869Z,98112.24
2019-04-25T06:00:17.500Z,98112.08
2019-04-25T06:02:46.194Z,98116.92
2019-04-25T06:05:15.189Z,98114.33
2019-04-25T06:07:43.615Z,98111.45
2019-04-25T06:10:26.680Z,98104.62
2019-04-25T06:13:05.576Z,98110.39
2019-04-25T06:15:35.161Z,98107.05
2019-04-25T06:18:21.194Z,98106.36
2019-04-25T06:20:49.776Z,98114.85
2019-04-25T06:23:22.620Z,98107.97
2019-04-25T06:25:53.820Z,98112.57
2019-04-25T06:28:24.851Z,98115.33
2019-04-25T06:30:54.083Z,98115.34
2019-04-25T06:33:24.555Z,98120.75
2019-04-25T06:35:52.762Z,98117.64
2019-04-25T06:38:21.347Z,98115.23
2019-04-25T06:40:49.820Z,98132.49
2019-04-25T06:43:18.226Z,98132.52
2019-04-25T06:45:51.475Z,98122.42
2019-04-25T06:48:25.063Z,98128.13
2019-04-25T06:50:54.320Z,98131.92
2019-04-25T06:53:24.747Z,98136.80
2019-04-25T06:55:53.582Z,98138.05
2019-04-25T06:58:23.287Z,98146.96
2019-04-25T07:01:00.109Z,98145.80
2019-04-25T07:03:23.445Z,98139.78
2019-04-25T07:05:53.597Z,98139.69
2019-04-25T07:08:23.142Z,98141.48
2019-04-25T07:10:55.124Z,98145.77
2019-04-25T07:13:24.708Z,98146.38
2019-04-25T07:15:53.386Z,98132.66
2019-04-25T07:18:23.538Z,98156.75
2019-04-25T07:20:53.382Z,98173.07
2019-04-25T07:23:23.532Z,98165.73
2019-04-25T07:25:53.979Z,98172.33
2019-04-25T07:28:39.218Z,98170.33
2019-04-25T07:31:13.329Z,98176.06
2019-04-25T07:33:46.477Z,98188.11
2019-04-25T07:36:15.645Z,98186.72
2019-04-25T07:38:44.066Z,98197.69
2019-04-25T07:41:14.640Z,98189.42
2019-04-25T07:43:43.328Z,98195.52
2019-04-25T07:46:13.515Z,98189.58
2019-04-25T07:48:43.640Z,98200.99
2019-04-25T07:51:16.175Z,98198.30
2019-04-25T07:53:43.593Z,98207.14
2019-04-25T07:56:12.168Z,98206.36
2019-04-25T07:58:49.375Z,98206.86
2019-04-25T08:01:11.914Z,98201.56
2019-04-25T08:03:40.353Z,98218.20
2019-04-25T08:06:08.836Z,98204.38
2019-04-25T08:08:38.105Z,98210.08
2019-04-25T08:11:08.711Z,98215.98
2019-04-25T08:13:47.615Z,98208.71
2019-04-25T08:16:17.766Z,98206.19
2019-04-25T08:18:48.124Z,98206.25
2019-04-25T08:21:16.508Z,98208.23
2019-04-25T08:23:45.115Z,98222.57
2019-04-25T08:26:14.301Z,98223.37
2019-04-25T08:28:51.978Z,98215.28
2019-04-25T08:31:13.542Z,98231.30
2019-04-25T08:33:43.472Z,98215.44
2019-04-25T08:36:13.701Z,98219.77
2019-04-25T08:38:44.410Z,98214.71
2019-04-25T08:41:14.079Z,98220.83
2019-04-25T08:43:44.948Z,98216.30
2019-04-25T08:46:14.011Z,98213.05
2019-04-25T08:49:04.729Z,98222.86
2019-04-25T08:51:34.923Z,98220.41
2019-04-25T08:54:08.760Z,98220.08
2019-04-25T08:56:38.742Z,98207.75
2019-04-25T08:59:34.595Z,98206.08
2019-04-25T09:01:57.277Z,98200.47
2019-04-25T09:04:27.318Z,98209.84
2019-04-25T09:06:55.761Z,98212.36
2019-04-25T09:09:24.097Z,98197.63
2019-04-25T09:11:54.278Z,98201.09
2019-04-25T09:14:24.462Z,98209.91
2019-04-25T09:16:53.426Z,98199.98
2019-04-25T09:19:21.869Z,98203.16
2019-04-25T09:21:50.270Z,98208.64
2019-04-25T09:24:18.712Z,98206.08
2019-04-25T09:26:47.083Z,98213.27
2019-04-25T09:29:19.412Z,98205.17
2019-04-25T09:31:46.092Z,98210.79
2019-04-25T09:34:14.546Z,98191.12
2019-04-25T09:36:43.938Z,98195.09
2019-04-25T09:39:23.716Z,98202.24
2019-04-25T09:41:53.503Z,98194.33
2019-04-25T09:44:24.208Z,98198.71
2019-04-25T09:46:53.691Z,98195.24
2019-04-25T09:49:23.856Z,98190.69
2019-04-25T09:51:56.807Z,98191.86
2019-04-25T09:54:29.902Z,98186.67
2019-04-25T09:57:05.690Z,98182.08
2019-04-25T09:59:35.283Z,98188.81
2019-04-25T10:02:05.434Z,98175.25
2019-04-25T10:04:34.678Z,98173.62
2019-04-25T10:07:03.534Z,98161.86
2019-04-25T10:09:33.677Z,98159.09
2019-04-25T10:12:02.159Z,98161.76
2019-04-25T10:14:36.748Z,98157.41
2019-04-25T10:17:06.071Z,98149.30
2019-04-25T10:19:34.594Z,98162.31
2019-04-25T10:22:03.448Z,98161.64
2019-04-25T10:24:32.334Z,98166.96
2019-04-25T10:27:01.070Z,98159.38
2019-04-25T10:29:39.375Z,98169.09
2019-04-25T10:32:00.149Z,98158.92
2019-04-25T10:34:28.553Z,98153.13
2019-04-25T10:36:57.008Z,98145.69
2019-04-25T10:39:26.006Z,98159.68
2019-04-25T10:41:54.893Z,98141.11
2019-04-25T10:44:24.581Z,98137.39
2019-04-25T10:46:54.635Z,98130.86
2019-04-25T10:49:23.645Z,98131.47
2019-04-25T10:51:52.521Z,98124.66
2019-04-25T10:54:20.943Z,98120.02
2019-04-25T10:56:49.321Z,98121.56
2019-04-25T10:59:17.797Z,98110.50
2019-04-25T11:01:47.274Z,98110.12
2019-04-25T11:04:17.326Z,98119.95
2019-04-25T11:06:45.768Z,98131.08
2019-04-25T11:09:18.892Z,98124.36
2019-04-25T11:11:48.135Z,98120.38
2019-04-25T11:14:16.590Z,98105.09
2019-04-25T11:16:45.641Z,98123.70
2019-04-25T11:19:15.348Z,98113.11
2019-04-25T11:21:45.143Z,98124.72
2019-04-25T11:24:14.329Z,98111.00
2019-04-25T11:26:44.677Z,98119.75
2019-04-25T11:29:13.246Z,98114.12
2019-04-25T11:31:45.819Z,98129.95
2019-04-25T11:34:16.817Z,98121.69
2019-04-25T11:36:45.345Z,98122.65
2019-04-25T11:39:25.043Z,98118.80
2019-04-25T11:41:55.518Z,98121.56
2019-04-25T11:44:24.534Z,98119.63
2019-04-25T11:46:53.067Z,98109.64
2019-04-25T11:49:21.501Z,98117.44
2019-04-25T11:51:50.313Z,98111.78
2019-04-25T11:54:18.687Z,98118.37
2019-04-25T11:56:47.351Z,98115.37
2019-04-25T11:59:15.909Z,98111.01
2019-04-25T12:01:45.365Z,98093.98
2019-04-25T12:04:14.979Z,98091.41
2019-04-25T12:06:46.988Z,98083.75
2019-04-25T12:09:13.978Z,98067.23
2019-04-25T12:11:44.598Z,98056.91
2019-04-25T12:14:12.516Z,98064.30
2019-04-25T12:16:41.004Z,98062.63
2019-04-25T12:19:09.528Z,98072.55
2019-04-25T12:21:37.980Z,98070.38
2019-04-25T12:24:06.560Z,98075.34
2019-04-25T12:26:35.059Z,98068.97
2019-04-25T12:29:04.422Z,98068.20
2019-04-25T12:31:34.217Z,98060.61
2019-04-25T12:34:03.555Z,98068.27
2019-04-25T12:36:32.153Z,98070.56
2019-04-25T12:39:01.099Z,98080.20
2019-04-25T12:41:29.504Z,98072.31
2019-04-25T12:44:15.710Z,98066.94
2019-04-25T12:46:46.033Z,98071.03
2019-04-25T12:49:15.238Z,98071.73
2019-04-25T12:51:43.738Z,98065.61
2019-04-25T12:54:13.799Z,98063.93
2019-04-25T12:56:43.304Z,98049.27
2019-04-25T12:59:11.789Z,98056.84
2019-04-25T13:01:40.260Z,98060.59
2019-04-25T13:04:08.871Z,98055.92
2019-04-25T13:06:37.573Z,98057.09
2019-04-25T13:09:07.232Z,98054.11
2019-04-25T13:11:35.679Z,98048.08
2019-04-25T13:14:04.188Z,98049.56
2019-04-25T13:16:34.265Z,98046.50
2019-04-25T13:19:13.448Z,98046.12
2019-04-25T13:21:34.040Z,98035.23
2019-04-25T13:24:03.047Z,98046.03
2019-04-25T13:26:33.692Z,98043.45
2019-04-25T13:29:23.176Z,98041.63
2019-04-25T13:31:53.819Z,98044.86
2019-04-25T13:34:36.009Z,98041.84
2019-04-25T13:36:58.076Z,98036.50
2019-04-25T13:39:27.333Z,98035.16
2019-04-25T13:41:58.537Z,98034.04
2019-04-25T13:44:26.083Z,98026.91
2019-04-25T13:46:54.577Z,98014.08
2019-04-25T13:49:23.026Z,98010.94
2019-04-25T13:51:51.678Z,98007.11
2019-04-25T13:54:20.899Z,97990.41
2019-04-25T13:56:50.135Z,97987.77
2019-04-25T13:59:18.622Z,97976.69
2019-04-25T14:01:47.771Z,97986.06
2019-04-25T14:04:16.390Z,97987.61
2019-04-25T14:06:44.892Z,97993.80
2019-04-25T14:09:14.955Z,97983.28
2019-04-25T14:11:44.079Z,97979.74
2019-04-25T14:14:12.927Z,97978.23
2019-04-25T14:16:57.925Z,97967.82
2019-04-25T14:19:39.797Z,97972.81
2019-04-25T14:22:08.286Z,97966.43
2019-04-25T14:24:36.783Z,97972.95
2019-04-25T14:27:05.959Z,97972.60
2019-04-25T14:29:34.852Z,97977.69
2019-04-25T14:32:06.204Z,97966.55
2019-04-25T14:34:34.629Z,97961.19
2019-04-25T14:37:04.348Z,97966.64
2019-04-25T14:39:33.363Z,97970.27
2019-04-25T14:42:01.855Z,97974.41
2019-04-25T14:44:31.233Z,97980.40
2019-04-25T14:46:59.869Z,97984.36
2019-04-25T14:49:28.377Z,97976.45
2019-04-25T14:51:56.743Z,97977.76
2019-04-25T14:54:32.697Z,97984.01
2019-04-25T14:57:08.406Z,97980.34
2019-04-25T14:59:36.829Z,97982.91
2019-04-25T15:02:05.439Z,97979.77
2019-04-25T15:04:35.279Z,97985.55
2019-04-25T15:07:04.452Z,97988.66
2019-04-25T15:09:32.913Z,97999.48
2019-04-25T15:12:01.389Z,97996.78
2019-04-25T15:14:29.887Z,98000.53
2019-04-25T15:16:58.261Z,97995.70
2019-04-25T15:19:27.517Z,97984.30
2019-04-25T15:21:55.997Z,97981.67
2019-04-25T15:24:25.082Z,97968.38
2019-04-25T15:26:53.556Z,97962.39
2019-04-25T15:29:21.949Z,97964.83
2019-04-25T15:31:55.929Z,97954.28
2019-04-25T15:34:22.304Z,97955.03
2019-04-25T15:36:52.366Z,97954.55
2019-04-25T15:39:22.400Z,97962.64
2019-04-25T15:41:55.178Z,97965.80
2019-04-25T15:44:37.282Z,97966.95
2019-04-25T15:47:07.443Z,97962.85
2019-04-25T15:49:36.974Z,97962.02
2019-04-25T15:52:06.420Z,97964.05
2019-04-25T15:54:34.872Z,97968.27
2019-04-25T15:57:03.671Z,97962.17
2019-04-25T15:59:32.757Z,97967.13
2019-04-25T16:02:07.844Z,97963.16
2019-04-25T16:04:32.407Z,97967.31
2019-04-25T16:07:00.794Z,97961.95
2019-04-25T16:09:29.922Z,97967.91
2019-04-25T16:11:58.337Z,97983.03
2019-04-25T16:14:26.944Z,97981.45
2019-04-25T16:16:55.444Z,97976.89
2019-04-25T16:19:23.911Z,97982.80
2019-04-25T16:21:52.426Z,97976.92
2019-04-25T16:24:20.862Z,97981.03
2019-04-25T16:26:49.276Z,97988.48
2019-04-25T16:29:17.813Z,97993.50
2019-04-25T16:31:46.390Z,97981.87
2019-04-25T16:34:14.824Z,97972.58
2019-04-25T16:36:43.260Z,97973.17
2019-04-25T16:39:13.478Z,97974.67
2019-04-25T16:41:42.608Z,97972.59
2019-04-25T16:44:12.884Z,97984.06
2019-04-25T16:46:41.745Z,97985.45
2019-04-25T16:49:10.209Z,97986.79
2019-04-25T16:51:38.736Z,97986.69
2019-04-25T16:54:07.158Z,97991.23
2019-04-25T16:56:35.607Z,97996.91
2019-04-25T16:59:04.188Z,98001.55
2019-04-25T17:01:33.680Z,98018.21
2019-04-25T17:04:02.337Z,98034.05
2019-04-25T17:06:31.401Z,98040.56
2019-04-25T17:08:59.898Z,98054.11
2019-04-25T17:11:29.513Z,98042.49
2019-04-25T17:14:03.029Z,98059.11
2019-04-25T17:16:36.796Z,98060.77
2019-04-25T17:19:13.496Z,98072.75
2019-04-25T17:21:42.787Z,98073.45
2019-04-25T17:24:11.393Z,98075.95
2019-04-25T17:26:39.776Z,98076.67
2019-04-25T17:29:09.876Z,98076.70
2019-04-25T17:31:55.887Z,98076.65
2019-04-25T17:34:25.980Z,98074.92
2019-04-25T17:36:58.681Z,98074.38
2019-04-25T17:39:32.154Z,98079.76
2019-04-25T17:42:01.457Z,98074.77
2019-04-25T17:44:29.943Z,98080.25
2019-04-25T17:47:06.196Z,98083.61
2019-04-25T17:49:28.539Z,98088.05
2019-04-25T17:51:57.016Z,98087.97
2019-04-25T17:54:25.494Z,98087.05
2019-04-25T17:56:53.909Z,98082.55
2019-04-25T17:59:22.649Z,98083.91
2019-04-25T18:01:52.311Z,98093.85
2019-04-25T18:04:20.752Z,98094.70
2019-04-25T18:06:49.195Z,98094.56
2019-04-25T18:09:17.755Z,98103.23
2019-04-25T18:11:46.269Z,98103.61
2019-04-25T18:14:14.901Z,98120.33
2019-04-25T18:16:47.949Z,98127.66
2019-04-25T18:19:18.103Z,98123.97
2019-04-25T18:21:46.651Z,98122.45
2019-04-25T18:24:33.100Z,98144.67
2019-04-25T18:27:06.143Z,98143.86
2019-04-25T18:29:35.068Z,98167.66
2019-04-25T18:32:05.493Z,98173.01
2019-04-25T18:34:35.991Z,98180.60
2019-04-25T18:37:21.529Z,98189.69
2019-04-25T18:39:51.540Z,98201.97
2019-04-25T18:42:21.655Z,98205.53
2019-04-25T18:44:50.184Z,98217.22
2019-04-25T18:47:18.604Z,98227.41
2019-04-25T18:49:47.007Z,98225.73
2019-04-25T18:52:33.323Z,98240.61
2019-04-25T18:55:21.164Z,98236.95
2019-04-25T18:57:53.681Z,98235.16
2019-04-25T19:00:40.398Z,98235.03
2019-04-25T19:03:22.041Z,98247.95
2019-04-25T19:05:52.096Z,98242.16
2019-04-25T19:08:20.581Z,98243.81
2019-04-25T19:10:48.982Z,98250.59
2019-04-25T19:13:17.393Z,98259.98
2019-04-25T19:15:45.861Z,98263.89
2019-04-25T19:18:14.313Z,98269.94
2019-04-25T19:20:43.868Z,98261.91
2019-04-25T19:23:12.332Z,98267.33
2019-04-25T19:25:41.583Z,98276.13
2019-04-25T19:28:09.985Z,98300.95
2019-04-25T19:30:38.705Z,98290.70
2019-04-25T19:33:08.062Z,98267.02
2019-04-25T19:35:36.763Z,98275.63
2019-04-25T19:38:05.153Z,98284.70
2019-04-25T19:40:38.212Z,98289.16
2019-04-25T19:43:24.363Z,98304.04
2019-04-25T19:45:52.799Z,98309.45
2019-04-25T19:48:21.222Z,98307.62
2019-04-25T19:50:50.574Z,98307.62
2019-04-25T19:53:19.064Z,98305.22
2019-04-25T19:55:47.616Z,98297.70
2019-04-25T19:58:16.018Z,98300.98
2019-04-25T20:00:44.623Z,98304.81
2019-04-25T20:03:17.401Z,98301.80
2019-04-25T20:05:53.258Z,98289.66
2019-04-25T20:08:39.358Z,98282.94
2019-04-25T20:11:09.500Z,98295.39
2019-04-25T20:13:37.909Z,98301.12
2019-04-25T20:16:06.887Z,98294.58
2019-04-25T20:18:35.299Z,98290.25
2019-04-25T20:21:03.731Z,98289.21
2019-04-25T20:23:32.170Z,98281.27
2019-04-25T20:26:00.560Z,98274.16
2019-04-25T20:28:29.092Z,98282.36
2019-04-25T20:30:57.571Z,98276.71
2019-04-25T20:33:26.002Z,98278.66
2019-04-25T20:35:55.305Z,98283.98
2019-04-25T20:38:23.788Z,98292.95
2019-04-25T20:40:52.216Z,98293.58
2019-04-25T20:43:20.584Z,98303.96
2019-04-25T20:45:50.057Z,98315.27
2019-04-25T20:48:18.742Z,98303.50
2019-04-25T20:50:48.273Z,98308.14
2019-04-25T20:53:16.709Z,98302.91
2019-04-25T20:55:45.235Z,98302.37
2019-04-25T20:58:13.606Z,98298.81
2019-04-25T21:00:46.047Z,98297.33
2019-04-25T21:03:15.441Z,98296.79
2019-04-25T21:05:45.032Z,98305.22
2019-04-25T21:08:13.464Z,98293.41
2019-04-25T21:10:41.892Z,98289.83
2019-04-25T21:13:11.889Z,98279.23
2019-04-25T21:15:54.257Z,98294.25
2019-04-25T21:18:30.566Z,98291.13
2019-04-25T21:20:59.229Z,98292.44
2019-04-25T21:23:27.723Z,98295.31
2019-04-25T21:25:56.949Z,98288.98
2019-04-25T21:28:25.434Z,98299.30
2019-04-25T21:30:54.776Z,98299.38
2019-04-25T21:33:23.326Z,98287.05
2019-04-25T21:35:53.613Z,98288.22
2019-04-25T21:38:22.382Z,98285.91
2019-04-25T21:41:08.403Z,98296.20
2019-04-25T21:43:39.068Z,98296.29
2019-04-25T21:46:07.804Z,98304.66
2019-04-25T21:48:36.370Z,98302.98
2019-04-25T21:51:06.566Z,98310.75
2019-04-25T21:53:35.017Z,98320.09
2019-04-25T21:56:04.005Z,98320.26
2019-04-25T21:58:32.388Z,98331.64
2019-04-25T22:01:02.823Z,98336.00
2019-04-25T22:03:31.244Z,98343.55
2019-04-25T22:06:00.725Z,98349.14
2019-04-25T22:08:29.289Z,98348.44
2019-04-25T22:10:57.755Z,98341.92
2019-04-25T22:13:26.197Z,98344.23
2019-04-25T22:15:55.101Z,98343.12
2019-04-25T22:18:24.486Z,98340.23
2019-04-25T22:20:52.930Z,98339.30
2019-04-25T22:23:21.334Z,98360.09
2019-04-25T22:25:49.970Z,98357.41
2019-04-25T22:28:18.659Z,98347.27
2019-04-25T22:30:48.984Z,98348.39
2019-04-25T22:33:37.126Z,98336.89
2019-04-25T22:36:09.986Z,98330.61
2019-04-25T22:38:38.418Z,98332.66
2019-04-25T22:41:07.850Z,98320.62
2019-04-25T22:43:38.076Z,98308.56
2019-04-25T22:46:06.685Z,98317.47
2019-04-25T22:48:50.539Z,98331.20
2019-04-25T22:51:18.950Z,98331.05
2019-04-25T22:53:47.923Z,98332.10
2019-04-25T22:56:16.392Z,98323.55
2019-04-25T22:58:44.815Z,98331.16
2019-04-25T23:01:18.065Z,98337.27
2019-04-25T23:03:48.117Z,98329.56
2019-04-25T23:06:16.674Z,98310.38
2019-04-25T23:08:45.086Z,98314.98
2019-04-25T23:11:13.516Z,98306.02
2019-04-25T23:13:42.229Z,98299.02
2019-04-25T23:16:11.125Z,98294.66
2019-04-25T23:18:39.633Z,98292.39
2019-04-25T23:21:08.559Z,98288.25
2019-04-25T23:23:37.040Z,98282.50
2019-04-25T23:26:07.910Z,98282.50
2019-04-25T23:28:38.174Z,98283.97
2019-04-25T23:31:08.302Z,98280.14
2019-04-25T23:33:36.713Z,98271.32
2019-04-25T23:36:05.615Z,98286.52
2019-04-25T23:38:35.224Z,98299.93
2019-04-25T23:41:05.783Z,98288.55
2019-04-25T23:43:34.060Z,98294.09
2019-04-25T23:46:02.534Z,98297.16
2019-04-25T23:48:31.231Z,98301.39
2019-04-25T23:50:59.636Z,98307.79
2019-04-25T23:53:28.632Z,98315.45
2019-04-25T23:55:57.118Z,98317.66
2019-04-25T23:58:25.537Z,98315.79
